Time,TemperatureF,DewpointF,PressureIn,WindDirection,WindDirectionDegrees,WindSpeedMPH,WindSpeedGustMPH,Humidity,HourlyPrecipIn,Conditions,Clouds,dailyrainin,SoftwareType,DateUTC
2014-12-19 00:05:00,58.6,57.8,30.11,NE,49,0.0,3.0,97,0.12,,,0.00,Wunderground v.1.15,2014-12-19 06:05:00,
2014-12-19 00:10:00,58.5,57.7,30.11,NE,44,1.0,1.0,97,0.15,,,0.02,Wunderground v.1.15,2014-12-19 06:10:00,
2014-12-19 00:15:00,58.4,57.6,30.11,NE,43,1.0,1.0,97,0.10,,,0.02,Wunderground v.1.15,2014-12-19 06:15:00,
2014-12-19 00:20:00,58.3,57.5,30.10,NE,44,0.0,0.0,97,0.07,,,0.03,Wunderground v.1.15,2014-12-19 06:20:00,
2014-12-19 00:25:00,58.2,57.4,30.10,NE,44,1.0,1.0,97,0.07,,,0.03,Wunderground v.1.15,2014-12-19 06:25:00,
2014-12-19 00:35:00,58.0,57.2,30.09,NE,39,2.0,2.0,97,0.23,,,0.05,Wunderground v.1.15,2014-12-19 06:35:00,
2014-12-19 00:40:00,58.0,57.2,30.08,NE,38,2.0,2.0,97,0.13,,,0.06,Wunderground v.1.15,2014-12-19 06:40:00,
2014-12-19 00:45:00,58.0,57.2,30.08,NE,37,1.0,2.0,97,0.06,,,0.06,Wunderground v.1.15,2014-12-19 06:45:00,
2014-12-19 00:55:00,57.9,57.1,30.08,NE,37,1.0,3.0,97,0.00,,,0.06,Wunderground v.1.15,2014-12-19 06:55:00,
2014-12-19 01:00:00,57.9,57.1,30.08,NE,37,1.0,1.0,97,0.00,,,0.06,Wunderground v.1.15,2014-12-19 07:00:00,
2014-12-19 01:10:00,57.9,57.1,30.07,NE,37,0.0,0.0,97,0.00,,,0.06,Wunderground v.1.15,2014-12-19 07:10:00,
2014-12-19 01:15:00,57.9,57.1,30.07,NE,37,0.0,2.0,97,0.00,,,0.06,Wunderground v.1.15,2014-12-19 07:15:00,
2014-12-19 01:20:00,58.0,57.2,30.07,ENE,57,1.0,1.0,97,0.00,,,0.06,Wunderground v.1.15,2014-12-19 07:20:00,
2014-12-19 01:25:00,58.0,57.2,30.07,ENE,63,1.0,3.0,97,0.00,,,0.06,Wunderground v.1.15,2014-12-19 07:25:00,
2014-12-19 01:30:00,58.0,57.2,30.07,ENE,62,1.0,1.0,97,0.00,,,0.06,Wunderground v.1.15,2014-12-19 07:30:00,
2014-12-19 01:35:00,58.1,57.3,30.07,ENE,62,1.0,1.0,97,0.00,,,0.06,Wunderground v.1.15,2014-12-19 07:35:00,
2014-12-19 01:45:00,58.2,57.6,30.06,ENE,63,1.0,1.0,98,0.00,,,0.06,Wunderground v.1.15,2014-12-19 07:45:00,
2014-12-19 01:50:00,58.3,57.7,30.06,ENE,62,1.0,1.0,98,0.00,,,0.06,Wunderground v.1.15,2014-12-19 07:50:00,
2014-12-19 02:00:00,58.5,57.9,30.06,ENE,63,1.0,1.0,98,0.00,,,0.06,Wunderground v.1.15,2014-12-19 08:00:00,
2014-12-19 02:05:00,58.6,58.0,30.06,ENE,63,0.0,1.0,98,0.00,,,0.06,Wunderground v.1.15,2014-12-19 08:05:00,
2014-12-19 02:10:00,58.7,58.1,30.06,ENE,63,0.0,2.0,98,0.00,,,0.06,Wunderground v.1.15,2014-12-19 08:10:00,
2014-12-19 02:20:00,58.8,58.2,30.06,ENE,63,0.0,0.0,98,0.00,,,0.06,Wunderground v.1.15,2014-12-19 08:20:00,
2014-12-19 02:25:00,58.9,58.3,30.05,ENE,63,0.0,2.0,98,0.00,,,0.06,Wunderground v.1.15,2014-12-19 08:25:00,
2014-12-19 02:30:00,58.9,58.3,30.05,ENE,63,0.0,1.0,98,0.00,,,0.06,Wunderground v.1.15,2014-12-19 08:30:00,
2014-12-19 02:35:00,59.0,58.4,30.05,ENE,62,0.0,4.0,98,0.00,,,0.06,Wunderground v.1.15,2014-12-19 08:35:00,
2014-12-19 02:40:00,59.0,58.4,30.05,ENE,63,0.0,0.0,98,0.00,,,0.06,Wunderground v.1.15,2014-12-19 08:40:00,
2014-12-19 02:50:00,59.1,58.5,30.04,ENE,62,1.0,1.0,98,0.00,,,0.06,Wunderground v.1.15,2014-12-19 08:50:00,
2014-12-19 02:55:00,59.1,58.5,30.04,ENE,62,1.0,1.0,98,0.00,,,0.06,Wunderground v.1.15,2014-12-19 08:55:00,
2014-12-19 03:05:00,59.1,58.5,30.04,ENE,59,1.0,3.0,98,0.00,,,0.06,Wunderground v.1.15,2014-12-19 09:05:00,
2014-12-19 03:10:00,59.2,58.6,30.04,ENE,59,1.0,1.0,98,0.00,,,0.06,Wunderground v.1.15,2014-12-19 09:10:00,
2014-12-19 03:15:00,59.2,58.6,30.05,ENE,61,1.0,1.0,98,0.00,,,0.06,Wunderground v.1.15,2014-12-19 09:15:00,
2014-12-19 03:25:00,59.3,58.7,30.04,ENE,61,0.0,0.0,98,0.00,,,0.06,Wunderground v.1.15,2014-12-19 09:25:00,
2014-12-19 03:30:00,59.3,58.7,30.04,ENE,70,1.0,7.0,98,0.00,,,0.06,Wunderground v.1.15,2014-12-19 09:30:00,
2014-12-19 03:35:00,59.4,58.8,30.04,ENE,66,2.0,7.0,98,0.00,,,0.06,Wunderground v.1.15,2014-12-19 09:35:00,
2014-12-19 03:40:00,59.4,58.8,30.04,ENE,65,1.0,5.0,98,0.00,,,0.06,Wunderground v.1.15,2014-12-19 09:40:00,
2014-12-19 03:45:00,59.4,58.8,30.04,ENE,65,1.0,5.0,98,0.00,,,0.06,Wunderground v.1.15,2014-12-19 09:45:00,
2014-12-19 03:50:00,59.4,58.8,30.04,ENE,62,1.0,3.0,98,0.00,,,0.06,Wunderground v.1.15,2014-12-19 09:50:00,
2014-12-19 04:00:00,59.5,58.9,30.04,ENE,66,2.0,2.0,98,0.00,,,0.06,Wunderground v.1.15,2014-12-19 10:00:00,
2014-12-19 04:10:00,59.6,59.0,30.03,East,80,2.0,2.0,98,0.00,,,0.06,Wunderground v.1.15,2014-12-19 10:10:00,
2014-12-19 04:15:00,59.6,59.0,30.03,ENE,75,2.0,2.0,98,0.00,,,0.06,Wunderground v.1.15,2014-12-19 10:15:00,
2014-12-19 04:20:00,59.6,59.0,30.03,ENE,75,1.0,1.0,98,0.00,,,0.06,Wunderground v.1.15,2014-12-19 10:20:00,
2014-12-19 04:25:00,59.7,59.1,30.03,ENE,75,1.0,1.0,98,0.00,,,0.06,Wunderground v.1.15,2014-12-19 10:25:00,
2014-12-19 04:35:00,59.7,59.1,30.03,ENE,59,2.0,3.0,98,0.00,,,0.06,Wunderground v.1.15,2014-12-19 10:35:00,
2014-12-19 04:40:00,59.8,59.2,30.02,ENE,59,2.0,2.0,98,0.00,,,0.06,Wunderground v.1.15,2014-12-19 10:40:00,
2014-12-19 04:45:00,59.8,59.2,30.03,ENE,62,3.0,3.0,98,0.00,,,0.06,Wunderground v.1.15,2014-12-19 10:45:00,
2014-12-19 04:50:00,59.8,59.2,30.03,ENE,61,2.0,5.0,98,0.00,,,0.06,Wunderground v.1.15,2014-12-19 10:50:00,
2014-12-19 04:55:00,59.9,59.3,30.02,ENE,70,2.0,5.0,98,0.00,,,0.06,Wunderground v.1.15,2014-12-19 10:55:00,
2014-12-19 05:05:00,59.9,59.3,30.04,ENE,62,1.0,2.0,98,0.00,,,0.06,Wunderground v.1.15,2014-12-19 11:05:00,
2014-12-19 05:15:00,59.8,59.2,30.04,ENE,62,1.0,3.0,98,0.00,,,0.06,Wunderground v.1.15,2014-12-19 11:15:00,
2014-12-19 05:20:00,59.8,59.2,30.04,NE,50,1.0,2.0,98,0.00,,,0.06,Wunderground v.1.15,2014-12-19 11:20:00,
2014-12-19 05:25:00,59.8,59.2,30.04,NE,51,1.0,2.0,98,0.00,,,0.06,Wunderground v.1.15,2014-12-19 11:25:00,
2014-12-19 05:30:00,59.8,59.2,30.05,NE,52,1.0,2.0,98,0.00,,,0.06,Wunderground v.1.15,2014-12-19 11:30:00,
2014-12-19 05:40:00,59.8,59.2,30.05,NE,52,1.0,2.0,98,0.00,,,0.06,Wunderground v.1.15,2014-12-19 11:40:00,
2014-12-19 05:45:00,59.8,59.2,30.05,NE,51,1.0,2.0,98,0.00,,,0.06,Wunderground v.1.15,2014-12-19 11:45:00,
2014-12-19 05:50:00,59.8,59.2,30.06,NE,51,1.0,1.0,98,0.00,,,0.06,Wunderground v.1.15,2014-12-19 11:50:00,
2014-12-19 05:55:00,59.8,59.2,30.07,NE,51,0.0,2.0,98,0.00,,,0.06,Wunderground v.1.15,2014-12-19 11:55:00,
2014-12-19 06:00:00,59.8,59.2,30.07,NE,47,0.0,5.0,98,0.00,,,0.06,Wunderground v.1.15,2014-12-19 12:00:00,
2014-12-19 06:05:00,59.6,59.0,30.07,NE,42,1.0,5.0,98,0.00,,,0.06,Wunderground v.1.15,2014-12-19 12:05:00,
2014-12-19 06:15:00,59.5,58.9,30.07,NE,49,1.0,3.0,98,0.00,,,0.06,Wunderground v.1.15,2014-12-19 12:15:00,
2014-12-19 06:20:00,59.4,58.5,30.07,NE,49,1.0,1.0,97,0.00,,,0.06,Wunderground v.1.15,2014-12-19 12:20:00,
2014-12-19 06:25:00,59.3,58.4,30.08,NE,48,1.0,4.0,97,0.00,,,0.06,Wunderground v.1.15,2014-12-19 12:25:00,
2014-12-19 06:30:00,59.2,58.3,30.08,NE,48,1.0,1.0,97,0.00,,,0.06,Wunderground v.1.15,2014-12-19 12:30:00,
2014-12-19 06:35:00,59.0,58.2,30.09,NE,52,2.0,2.0,97,0.00,,,0.06,Wunderground v.1.15,2014-12-19 12:35:00,
2014-12-19 06:40:00,59.0,58.2,30.09,NE,52,2.0,2.0,97,0.00,,,0.06,Wunderground v.1.15,2014-12-19 12:40:00,
2014-12-19 06:50:00,58.8,58.0,30.09,NE,39,1.0,1.0,97,0.00,,,0.06,Wunderground v.1.15,2014-12-19 12:50:00,
2014-12-19 06:55:00,58.7,57.9,30.09,NE,39,1.0,1.0,97,0.00,,,0.06,Wunderground v.1.15,2014-12-19 12:55:00,
2014-12-19 07:00:00,58.6,57.8,30.09,NE,39,1.0,3.0,97,0.00,,,0.06,Wunderground v.1.15,2014-12-19 13:00:00,
2014-12-19 07:05:00,58.5,57.7,30.09,NE,35,2.0,3.0,97,0.00,,,0.06,Wunderground v.1.15,2014-12-19 13:05:00,
2014-12-19 07:10:00,58.3,57.2,30.09,ENE,68,3.0,4.0,96,0.00,,,0.06,Wunderground v.1.15,2014-12-19 13:10:00,
2014-12-19 07:20:00,58.3,57.2,30.10,NNE,14,3.0,3.0,96,0.00,,,0.06,Wunderground v.1.15,2014-12-19 13:20:00,
2014-12-19 07:25:00,58.4,57.3,30.10,North,4,2.0,6.0,96,0.00,,,0.06,Wunderground v.1.15,2014-12-19 13:25:00,
2014-12-19 07:30:00,58.4,57.3,30.10,NNE,16,2.0,5.0,96,0.00,,,0.06,Wunderground v.1.15,2014-12-19 13:30:00,
2014-12-19 07:35:00,58.4,57.3,30.11,North,4,2.0,5.0,96,0.00,,,0.06,Wunderground v.1.15,2014-12-19 13:35:00,
2014-12-19 07:40:00,58.2,57.1,30.10,North,359,2.0,2.0,96,0.00,,,0.06,Wunderground v.1.15,2014-12-19 13:40:00,
2014-12-19 07:45:00,58.2,57.1,30.10,NNE,16,2.0,3.0,96,0.00,,,0.06,Wunderground v.1.15,2014-12-19 13:45:00,
2014-12-19 07:55:00,57.9,56.5,30.10,NNE,14,2.0,4.0,95,0.00,,,0.06,Wunderground v.1.15,2014-12-19 13:55:00,
2014-12-19 08:00:00,57.9,56.5,30.11,NNE,22,3.0,3.0,95,0.00,,,0.06,Wunderground v.1.15,2014-12-19 14:00:00,
2014-12-19 08:05:00,57.8,56.4,30.11,NNW,343,3.0,4.0,95,0.00,,,0.06,Wunderground v.1.15,2014-12-19 14:05:00,
2014-12-19 08:10:00,57.7,56.3,30.13,NW,325,5.0,5.0,95,0.00,,,0.06,Wunderground v.1.15,2014-12-19 14:10:00,
2014-12-19 08:15:00,57.6,55.9,30.12,North,4,7.0,7.0,94,0.00,,,0.06,Wunderground v.1.15,2014-12-19 14:15:00,
2014-12-19 08:25:00,57.6,55.9,30.12,NNW,330,5.0,8.0,94,0.00,,,0.06,Wunderground v.1.15,2014-12-19 14:25:00,
2014-12-19 08:35:00,57.5,55.8,30.13,North,354,5.0,6.0,94,0.00,,,0.06,Wunderground v.1.15,2014-12-19 14:35:00,
2014-12-19 08:40:00,57.4,55.7,30.13,NNW,347,5.0,5.0,94,0.00,,,0.06,Wunderground v.1.15,2014-12-19 14:40:00,
2014-12-19 08:45:00,57.3,55.3,30.13,NNW,339,4.0,7.0,93,0.00,,,0.06,Wunderground v.1.15,2014-12-19 14:45:00,
2014-12-19 08:50:00,57.3,55.3,30.13,NNE,21,4.0,4.0,93,0.00,,,0.06,Wunderground v.1.15,2014-12-19 14:50:00,
2014-12-19 08:55:00,57.3,55.3,30.13,NNE,20,3.0,4.0,93,0.00,,,0.06,Wunderground v.1.15,2014-12-19 14:55:00,
2014-12-19 09:05:00,57.3,55.3,30.13,NNE,14,4.0,4.0,93,0.00,,,0.06,Wunderground v.1.15,2014-12-19 15:05:00,
2014-12-19 09:10:00,57.4,55.4,30.13,NNW,342,4.0,4.0,93,0.00,,,0.06,Wunderground v.1.15,2014-12-19 15:10:00,
2014-12-19 09:15:00,57.4,55.1,30.12,NE,39,4.0,4.0,92,0.00,,,0.06,Wunderground v.1.15,2014-12-19 15:15:00,
2014-12-19 09:20:00,57.4,55.1,30.13,North,4,4.0,4.0,92,0.00,,,0.06,Wunderground v.1.15,2014-12-19 15:20:00,
2014-12-19 09:30:00,57.4,55.1,30.12,NNW,344,4.0,7.0,92,0.00,,,0.06,Wunderground v.1.15,2014-12-19 15:30:00,
2014-12-19 09:40:00,57.3,55.0,30.12,NE,52,3.0,5.0,92,0.00,,,0.06,Wunderground v.1.15,2014-12-19 15:40:00,
2014-12-19 09:45:00,57.3,55.0,30.12,NNE,14,4.0,5.0,92,0.00,,,0.06,Wunderground v.1.15,2014-12-19 15:45:00,
2014-12-19 09:50:00,57.3,55.3,30.11,NE,37,5.0,5.0,93,0.00,,,0.06,Wunderground v.1.15,2014-12-19 15:50:00,
2014-12-19 09:55:00,57.3,55.3,30.11,NE,44,4.0,5.0,93,0.00,,,0.06,Wunderground v.1.15,2014-12-19 15:55:00,
2014-12-19 10:00:00,57.2,55.2,30.11,NNE,16,2.0,3.0,93,0.00,,,0.07,Wunderground v.1.15,2014-12-19 16:00:00,
2014-12-19 10:10:00,56.9,55.2,30.11,ENE,59,3.0,9.0,94,0.19,,,0.09,Wunderground v.1.15,2014-12-19 16:10:00,
2014-12-19 10:15:00,56.7,55.0,30.11,NNE,33,3.0,9.0,94,0.10,,,0.09,Wunderground v.1.15,2014-12-19 16:15:00,
2014-12-19 10:20:00,56.6,55.2,30.11,NNE,16,3.0,5.0,95,0.07,,,0.10,Wunderground v.1.15,2014-12-19 16:20:00,
2014-12-19 10:25:00,56.6,55.2,30.11,ENE,62,3.0,5.0,95,0.07,,,0.10,Wunderground v.1.15,2014-12-19 16:25:00,
2014-12-19 10:35:00,56.5,55.1,30.11,ENE,64,4.0,6.0,95,0.04,,,0.10,Wunderground v.1.15,2014-12-19 16:35:00,
2014-12-19 10:45:00,56.5,55.1,30.11,NNE,29,3.0,4.0,95,0.00,,,0.10,Wunderground v.1.15,2014-12-19 16:45:00,
2014-12-19 10:50:00,56.5,55.4,30.11,NE,43,1.0,2.0,96,0.00,,,0.10,Wunderground v.1.15,2014-12-19 16:50:00,
2014-12-19 10:55:00,56.5,55.4,30.11,NNE,32,1.0,2.0,96,0.00,,,0.10,Wunderground v.1.15,2014-12-19 16:55:00,
2014-12-19 11:00:00,56.5,55.4,30.10,NNE,31,1.0,1.0,96,0.00,,,0.10,Wunderground v.1.15,2014-12-19 17:00:00,
2014-12-19 11:05:00,56.6,55.5,30.10,NE,43,1.0,3.0,96,0.00,,,0.10,Wunderground v.1.15,2014-12-19 17:05:00,
2014-12-19 11:10:00,56.6,55.5,30.09,NE,45,2.0,6.0,96,0.00,,,0.10,Wunderground v.1.15,2014-12-19 17:10:00,
2014-12-19 11:20:00,56.6,55.5,30.09,NE,52,4.0,4.0,96,0.00,,,0.10,Wunderground v.1.15,2014-12-19 17:20:00,
2014-12-19 11:25:00,56.8,55.7,30.08,NE,47,4.0,4.0,96,0.00,,,0.10,Wunderground v.1.15,2014-12-19 17:25:00,
2014-12-19 11:30:00,56.8,55.7,30.08,ENE,66,5.0,5.0,96,0.00,,,0.10,Wunderground v.1.15,2014-12-19 17:30:00,
2014-12-19 11:40:00,57.0,55.9,30.08,NE,53,4.0,4.0,96,0.00,,,0.10,Wunderground v.1.15,2014-12-19 17:40:00,
2014-12-19 11:45:00,56.9,55.8,30.09,ENE,76,3.0,4.0,96,0.00,,,0.10,Wunderground v.1.15,2014-12-19 17:45:00,
2014-12-19 11:55:00,56.9,55.8,30.07,ENE,58,4.0,5.0,96,0.00,,,0.10,Wunderground v.1.15,2014-12-19 17:55:00,
2014-12-19 12:00:00,56.8,55.7,30.07,ENE,76,3.0,3.0,96,0.00,,,0.10,Wunderground v.1.15,2014-12-19 18:00:00,
2014-12-19 12:05:00,56.8,55.7,30.07,ENE,61,4.0,4.0,96,0.00,,,0.10,Wunderground v.1.15,2014-12-19 18:05:00,
2014-12-19 12:10:00,56.9,55.8,30.07,ENE,61,2.0,2.0,96,0.00,,,0.11,Wunderground v.1.15,2014-12-19 18:10:00,
2014-12-19 12:15:00,56.8,55.7,30.07,ENE,66,2.0,2.0,96,0.00,,,0.11,Wunderground v.1.15,2014-12-19 18:15:00,
2014-12-19 12:25:00,56.6,55.5,30.06,ENE,68,4.0,4.0,96,0.04,,,0.12,Wunderground v.1.15,2014-12-19 18:25:00,
2014-12-19 12:30:00,56.6,55.5,30.06,ENE,59,4.0,5.0,96,0.09,,,0.13,Wunderground v.1.15,2014-12-19 18:30:00,
2014-12-19 12:35:00,56.5,55.4,30.06,ENE,64,4.0,5.0,96,0.10,,,0.14,Wunderground v.1.15,2014-12-19 18:35:00,
2014-12-19 12:45:00,56.4,55.3,30.05,ENE,72,4.0,7.0,96,0.10,,,0.15,Wunderground v.1.15,2014-12-19 18:45:00,
2014-12-19 12:50:00,56.4,55.3,30.04,ENE,75,4.0,4.0,96,0.11,,,0.16,Wunderground v.1.15,2014-12-19 18:50:00,
2014-12-19 13:00:00,56.4,55.6,30.04,ENE,67,3.0,4.0,97,0.09,,,0.18,Wunderground v.1.15,2014-12-19 19:00:00,
2014-12-19 13:05:00,56.5,55.7,30.03,ENE,58,3.0,7.0,97,0.09,,,0.18,Wunderground v.1.15,2014-12-19 19:05:00,
2014-12-19 13:10:00,56.5,55.7,30.03,East,89,4.0,4.0,97,0.05,,,0.18,Wunderground v.1.15,2014-12-19 19:10:00,
2014-12-19 13:15:00,56.5,55.7,30.03,ENE,57,4.0,4.0,97,0.04,,,0.18,Wunderground v.1.15,2014-12-19 19:15:00,
2014-12-19 13:20:00,56.4,55.6,30.02,ENE,73,4.0,4.0,97,0.00,,,0.18,Wunderground v.1.15,2014-12-19 19:20:00,
2014-12-19 13:25:00,56.5,55.7,30.02,ENE,74,5.0,5.0,97,0.00,,,0.18,Wunderground v.1.15,2014-12-19 19:25:00,
2014-12-19 13:35:00,56.5,55.7,30.02,NE,55,5.0,6.0,97,0.00,,,0.18,Wunderground v.1.15,2014-12-19 19:35:00,
2014-12-19 13:40:00,56.5,55.7,30.02,NNE,21,4.0,4.0,97,0.00,,,0.18,Wunderground v.1.15,2014-12-19 19:40:00,
2014-12-19 13:50:00,56.7,55.9,30.02,ENE,65,4.0,4.0,97,0.00,,,0.18,Wunderground v.1.15,2014-12-19 19:50:00,
2014-12-19 13:55:00,56.8,56.0,30.02,ENE,78,3.0,6.0,97,0.00,,,0.18,Wunderground v.1.15,2014-12-19 19:55:00,
2014-12-19 14:00:00,56.9,56.1,30.01,NE,51,3.0,3.0,97,0.00,,,0.18,Wunderground v.1.15,2014-12-19 20:00:00,
2014-12-19 14:10:00,57.1,56.3,30.01,ENE,57,3.0,5.0,97,0.00,,,0.18,Wunderground v.1.15,2014-12-19 20:10:00,
2014-12-19 14:15:00,57.1,56.3,30.02,ENE,62,2.0,5.0,97,0.00,,,0.18,Wunderground v.1.15,2014-12-19 20:15:00,
2014-12-19 14:20:00,57.1,56.3,30.02,NE,54,2.0,2.0,97,0.00,,,0.18,Wunderground v.1.15,2014-12-19 20:20:00,
2014-12-19 14:25:00,56.9,56.1,30.02,NE,45,3.0,3.0,97,0.00,,,0.18,Wunderground v.1.15,2014-12-19 20:25:00,
2014-12-19 14:30:00,56.8,56.0,30.03,NE,41,3.0,3.0,97,0.00,,,0.18,Wunderground v.1.15,2014-12-19 20:30:00,
2014-12-19 14:40:00,56.8,56.0,30.03,NE,45,1.0,1.0,97,0.00,,,0.18,Wunderground v.1.15,2014-12-19 20:40:00,
2014-12-19 14:45:00,56.7,55.6,30.03,NE,44,1.0,1.0,96,0.00,,,0.18,Wunderground v.1.15,2014-12-19 20:45:00,
2014-12-19 14:55:00,56.6,55.8,30.01,ENE,63,1.0,4.0,97,0.32,,,0.21,Wunderground v.1.15,2014-12-19 20:55:00,
2014-12-19 15:00:00,56.5,55.7,30.01,ENE,75,3.0,4.0,97,0.16,,,0.22,Wunderground v.1.15,2014-12-19 21:00:00,
2014-12-19 15:05:00,56.4,55.6,30.01,NE,43,3.0,5.0,97,0.07,,,0.22,Wunderground v.1.15,2014-12-19 21:05:00,
2014-12-19 15:15:00,56.3,55.5,30.02,ENE,73,3.0,3.0,97,0.06,,,0.23,Wunderground v.1.15,2014-12-19 21:15:00,
2014-12-19 15:20:00,56.5,55.7,30.02,NE,49,2.0,3.0,97,0.06,,,0.24,Wunderground v.1.15,2014-12-19 21:20:00,
2014-12-19 15:25:00,56.5,55.7,30.01,NNE,28,2.0,6.0,97,0.06,,,0.24,Wunderground v.1.15,2014-12-19 21:25:00,
2014-12-19 15:30:00,56.4,55.6,30.01,NE,47,3.0,3.0,97,0.05,,,0.24,Wunderground v.1.15,2014-12-19 21:30:00,
2014-12-19 15:35:00,56.3,55.5,30.02,NNE,25,3.0,3.0,97,0.00,,,0.24,Wunderground v.1.15,2014-12-19 21:35:00,
2014-12-19 15:40:00,56.3,55.5,30.02,NE,47,1.0,2.0,97,0.00,,,0.24,Wunderground v.1.15,2014-12-19 21:40:00,
2014-12-19 15:50:00,56.2,55.4,30.02,ENE,59,3.0,5.0,97,0.00,,,0.24,Wunderground v.1.15,2014-12-19 21:50:00,
2014-12-19 16:00:00,56.2,55.4,30.03,NE,44,3.0,3.0,97,0.00,,,0.24,Wunderground v.1.15,2014-12-19 22:00:00,
2014-12-19 16:05:00,56.1,55.3,30.03,NE,55,4.0,4.0,97,0.00,,,0.24,Wunderground v.1.15,2014-12-19 22:05:00,
2014-12-19 16:10:00,56.0,55.2,30.02,NE,37,4.0,4.0,97,0.00,,,0.24,Wunderground v.1.15,2014-12-19 22:10:00,
2014-12-19 16:15:00,56.0,55.2,30.03,NE,35,4.0,5.0,97,0.00,,,0.24,Wunderground v.1.15,2014-12-19 22:15:00,
2014-12-19 16:25:00,55.9,55.1,30.03,NE,37,5.0,5.0,97,0.00,,,0.24,Wunderground v.1.15,2014-12-19 22:25:00,
2014-12-19 16:30:00,55.8,55.0,30.03,NE,35,5.0,5.0,97,0.00,,,0.24,Wunderground v.1.15,2014-12-19 22:30:00,
2014-12-19 16:35:00,55.7,54.9,30.03,NNE,29,5.0,5.0,97,0.00,,,0.24,Wunderground v.1.15,2014-12-19 22:35:00,
2014-12-19 16:40:00,55.6,54.8,30.03,NNE,29,4.0,7.0,97,0.00,,,0.24,Wunderground v.1.15,2014-12-19 22:40:00,
2014-12-19 16:45:00,55.6,54.8,30.03,NE,56,3.0,7.0,97,0.00,,,0.24,Wunderground v.1.15,2014-12-19 22:45:00,
2014-12-19 16:55:00,55.5,54.7,30.03,NNE,33,5.0,6.0,97,0.00,,,0.24,Wunderground v.1.15,2014-12-19 22:55:00,
2014-12-19 17:05:00,55.5,54.7,30.01,NE,48,4.0,5.0,97,0.00,,,0.24,Wunderground v.1.15,2014-12-19 23:05:00,
2014-12-19 17:10:00,55.4,54.6,30.03,NE,42,3.0,6.0,97,0.00,,,0.24,Wunderground v.1.15,2014-12-19 23:10:00,
2014-12-19 17:15:00,55.3,54.5,30.03,NNE,25,4.0,6.0,97,0.00,,,0.24,Wunderground v.1.15,2014-12-19 23:15:00,
2014-12-19 17:20:00,55.3,54.5,30.03,NE,44,4.0,4.0,97,0.00,,,0.24,Wunderground v.1.15,2014-12-19 23:20:00,
2014-12-19 17:30:00,55.1,54.3,30.04,NNE,25,4.0,4.0,97,0.00,,,0.24,Wunderground v.1.15,2014-12-19 23:30:00,
2014-12-19 17:35:00,55.0,54.2,30.04,North,9,4.0,4.0,97,0.00,,,0.24,Wunderground v.1.15,2014-12-19 23:35:00,
2014-12-19 17:40:00,55.0,54.2,30.04,NNE,31,3.0,3.0,97,0.00,,,0.24,Wunderground v.1.15,2014-12-19 23:40:00,
2014-12-19 17:45:00,54.8,54.0,30.04,NE,40,3.0,3.0,97,0.00,,,0.24,Wunderground v.1.15,2014-12-19 23:45:00,
2014-12-19 17:50:00,54.6,53.8,30.05,NE,34,5.0,6.0,97,0.00,,,0.24,Wunderground v.1.15,2014-12-19 23:50:00,
2014-12-19 18:00:00,54.6,53.8,30.05,North,4,3.0,5.0,97,0.00,,,0.24,Wunderground v.1.15,2014-12-20 00:00:00,
2014-12-19 18:10:00,54.5,53.7,30.05,NE,37,4.0,4.0,97,0.00,,,0.24,Wunderground v.1.15,2014-12-20 00:10:00,
2014-12-19 18:15:00,54.5,53.7,30.05,ENE,62,4.0,4.0,97,0.00,,,0.24,Wunderground v.1.15,2014-12-20 00:15:00,
2014-12-19 18:20:00,54.4,53.6,30.05,NNE,21,4.0,5.0,97,0.00,,,0.24,Wunderground v.1.15,2014-12-20 00:20:00,
2014-12-19 18:25:00,54.4,53.6,30.05,NNE,23,3.0,5.0,97,0.00,,,0.24,Wunderground v.1.15,2014-12-20 00:25:00,
2014-12-19 18:30:00,54.4,53.6,30.05,NNE,30,4.0,4.0,97,0.00,,,0.24,Wunderground v.1.15,2014-12-20 00:30:00,
2014-12-19 18:40:00,54.1,53.0,30.06,NE,46,4.0,7.0,96,0.00,,,0.24,Wunderground v.1.15,2014-12-20 00:40:00,
2014-12-19 18:45:00,53.9,53.1,30.06,ENE,68,5.0,8.0,97,0.00,,,0.24,Wunderground v.1.15,2014-12-20 00:45:00,
2014-12-19 18:50:00,53.8,53.0,30.06,ENE,62,5.0,8.0,97,0.00,,,0.24,Wunderground v.1.15,2014-12-20 00:50:00,
2014-12-19 18:55:00,53.6,52.8,30.06,North,354,5.0,8.0,97,0.00,,,0.24,Wunderground v.1.15,2014-12-20 00:55:00,
2014-12-19 19:05:00,53.5,52.7,30.07,North,354,4.0,5.0,97,0.00,,,0.24,Wunderground v.1.15,2014-12-20 01:05:00,
2014-12-19 19:15:00,53.4,52.6,30.07,NNW,343,4.0,5.0,97,0.00,,,0.24,Wunderground v.1.15,2014-12-20 01:15:00,
2014-12-19 19:20:00,53.2,52.4,30.07,NNE,15,4.0,5.0,97,0.00,,,0.24,Wunderground v.1.15,2014-12-20 01:20:00,
2014-12-19 19:25:00,53.0,52.2,30.06,North,349,4.0,5.0,97,0.00,,,0.24,Wunderground v.1.15,2014-12-20 01:25:00,
2014-12-19 19:30:00,52.8,52.0,30.07,North,9,4.0,4.0,97,0.00,,,0.24,Wunderground v.1.15,2014-12-20 01:30:00,